Ituzaingo, Argentina
Current Conditions -  °F | °C
As of 10:00 AM on Thursday 30 Oct 2014 (Local Time) from SARP Reporting Station
Overcast Overcast  
Wind Chill: 66°   Ceiling: 6000
Heat Index: 66°   Visibility: 3mi
Dew Point: 63°   Wind: 17mph
Humidity: 88%   Direction: 140°SE
Pressure: 29.83"   Gusts: NA
Location:  27.6°S, 56.68°W
Report Text: SARP 301300Z 14015KT 5000 FEW007 FEW050CBOVC060 19/17 Q1010
Loading
Personal Weather Stations






























Interactive Weather Map New forecast layout! Learn more

10-Day Weather Forecast

Advertisements
Track Severe Weather on mobile